createdAt,value
2017-10-04T00:00:49.272Z,11.34
2017-10-04T00:03:15.529Z,11.19
2017-10-04T00:05:41.775Z,11.28
2017-10-04T00:08:08.027Z,11.18
2017-10-04T00:10:34.278Z,11.14
2017-10-04T00:13:00.544Z,11.14
2017-10-04T00:15:26.826Z,11.08
2017-10-04T00:17:53.047Z,11.07
2017-10-04T00:20:19.300Z,11.14
2017-10-04T00:22:45.556Z,11.26
2017-10-04T00:25:11.794Z,11.32
2017-10-04T00:27:38.007Z,11.30
2017-10-04T00:30:04.219Z,11.39
2017-10-04T00:32:30.439Z,11.38
2017-10-04T00:34:56.701Z,11.28
2017-10-04T00:37:22.934Z,11.25
2017-10-04T00:39:49.164Z,11.10
2017-10-04T00:42:15.385Z,11.24
2017-10-04T00:44:41.609Z,11.32
2017-10-04T00:47:07.897Z,11.25
2017-10-04T00:49:34.127Z,10.99
2017-10-04T00:52:00.357Z,10.69
2017-10-04T00:54:26.580Z,10.65
2017-10-04T00:56:52.808Z,10.59
2017-10-04T00:59:19.050Z,10.45
2017-10-04T01:01:45.274Z,10.38
2017-10-04T01:04:11.505Z,10.32
2017-10-04T01:06:37.748Z,10.25
2017-10-04T01:09:03.963Z,10.26
2017-10-04T01:11:30.944Z,10.24
2017-10-04T01:13:57.153Z,10.30
2017-10-04T01:16:23.370Z,10.26
2017-10-04T01:18:49.976Z,10.23
2017-10-04T01:21:16.199Z,10.23
2017-10-04T01:23:42.483Z,10.22
2017-10-04T01:26:08.698Z,10.19
2017-10-04T01:28:34.945Z,10.17
2017-10-04T01:31:02.176Z,10.20
2017-10-04T01:33:28.389Z,10.08
2017-10-04T01:35:54.670Z,10.03
2017-10-04T01:38:20.887Z,9.86
2017-10-04T01:40:47.089Z,9.66
2017-10-04T01:43:13.307Z,9.56
2017-10-04T01:45:39.513Z,9.54
2017-10-04T01:48:05.766Z,9.60
2017-10-04T01:50:31.964Z,9.62
2017-10-04T01:52:58.157Z,9.62
2017-10-04T01:55:24.353Z,9.55
2017-10-04T01:57:50.528Z,9.52
2017-10-04T02:00:16.795Z,9.56
2017-10-04T02:02:43.009Z,9.52
2017-10-04T02:05:09.215Z,9.45
2017-10-04T02:07:35.430Z,9.44
2017-10-04T02:10:01.634Z,9.36
2017-10-04T02:12:27.903Z,9.41
2017-10-04T02:14:54.122Z,9.45
2017-10-04T02:17:20.337Z,9.42
2017-10-04T02:19:46.580Z,9.31
2017-10-04T02:22:12.777Z,9.12
2017-10-04T02:24:39.039Z,9.09
2017-10-04T02:27:05.246Z,9.13
2017-10-04T02:29:31.470Z,9.17
2017-10-04T02:31:57.699Z,9.17
2017-10-04T02:34:23.924Z,9.04
2017-10-04T02:36:50.181Z,8.98
2017-10-04T02:39:17.490Z,8.89
2017-10-04T02:41:43.686Z,8.93
2017-10-04T02:44:09.906Z,8.92
2017-10-04T02:46:36.157Z,8.89
2017-10-04T02:49:02.731Z,8.68
2017-10-04T02:51:28.943Z,8.63
2017-10-04T02:53:55.202Z,8.55
2017-10-04T02:56:21.428Z,8.55
2017-10-04T02:58:47.653Z,8.49
2017-10-04T03:01:13.880Z,8.55
2017-10-04T03:03:40.402Z,8.60
2017-10-04T03:06:06.632Z,8.61
2017-10-04T03:08:32.825Z,8.70
2017-10-04T03:10:59.054Z,8.74
2017-10-04T03:13:25.349Z,8.77
2017-10-04T03:15:51.574Z,8.82
2017-10-04T03:18:17.786Z,8.88
2017-10-04T03:20:44.001Z,8.93
2017-10-04T03:23:10.214Z,9.04
2017-10-04T03:25:36.438Z,9.15
2017-10-04T03:28:02.659Z,9.27
2017-10-04T03:30:28.864Z,9.16
2017-10-04T03:32:55.089Z,9.07
2017-10-04T03:35:21.301Z,8.90
2017-10-04T03:37:48.326Z,8.95
2017-10-04T03:40:14.551Z,8.88
2017-10-04T03:42:40.748Z,8.77
2017-10-04T03:45:06.955Z,8.75
2017-10-04T03:47:33.148Z,8.71
2017-10-04T03:49:59.380Z,8.65
2017-10-04T03:52:25.588Z,8.68
2017-10-04T03:54:51.782Z,8.73
2017-10-04T03:57:17.986Z,8.82
2017-10-04T03:59:44.200Z,8.76
2017-10-04T04:02:10.435Z,8.70
2017-10-04T04:04:36.688Z,8.77
2017-10-04T04:07:02.911Z,8.87
2017-10-04T04:09:29.130Z,8.92
2017-10-04T04:11:55.340Z,8.96
2017-10-04T04:14:21.617Z,9.12
2017-10-04T04:16:47.849Z,9.25
2017-10-04T04:19:14.100Z,9.30
2017-10-04T04:21:40.339Z,8.43
2017-10-04T04:24:06.607Z,8.05
2017-10-04T04:26:32.856Z,7.97
2017-10-04T04:28:59.108Z,7.99
2017-10-04T04:31:25.365Z,8.00
2017-10-04T04:33:51.626Z,8.01
2017-10-04T04:36:17.849Z,8.35
2017-10-04T04:38:44.095Z,8.82
2017-10-04T04:41:10.298Z,9.37
2017-10-04T04:43:36.524Z,9.65
2017-10-04T04:46:02.764Z,9.53
2017-10-04T04:48:28.975Z,9.31
2017-10-04T04:50:55.200Z,9.30
2017-10-04T04:53:21.403Z,9.21
2017-10-04T04:55:47.623Z,9.19
2017-10-04T04:58:13.878Z,9.26
2017-10-04T05:00:40.124Z,9.28
2017-10-04T05:03:06.390Z,9.27
2017-10-04T05:05:32.652Z,9.37
2017-10-04T05:07:58.880Z,9.62
2017-10-04T05:10:25.103Z,10.54
2017-10-04T05:12:51.340Z,12.07
2017-10-04T05:15:17.553Z,13.22
2017-10-04T05:17:43.781Z,14.06
2017-10-04T05:20:10.045Z,14.69
2017-10-04T05:22:36.268Z,15.36
2017-10-04T05:25:02.505Z,16.37
2017-10-04T05:27:29.248Z,17.42
2017-10-04T05:29:55.607Z,18.31
2017-10-04T05:32:21.853Z,18.55
2017-10-04T05:34:48.083Z,19.17
2017-10-04T05:37:14.298Z,20.01
2017-10-04T05:39:40.571Z,20.68
2017-10-04T05:42:06.826Z,20.62
2017-10-04T05:44:33.041Z,20.97
2017-10-04T05:46:59.297Z,21.56
2017-10-04T05:49:25.613Z,21.49
2017-10-04T05:51:51.826Z,20.14
2017-10-04T05:54:18.119Z,19.99
2017-10-04T05:56:44.368Z,19.21
2017-10-04T05:59:10.590Z,18.98
2017-10-04T06:01:36.849Z,19.44
2017-10-04T06:04:03.080Z,19.92
2017-10-04T06:06:29.307Z,20.45
2017-10-04T06:08:55.528Z,21.33
2017-10-04T06:11:21.753Z,21.22
2017-10-04T06:13:48.002Z,21.62
2017-10-04T06:16:14.230Z,21.70
2017-10-04T06:18:40.479Z,21.51
2017-10-04T06:21:06.764Z,21.54
2017-10-04T06:23:33.017Z,21.83
2017-10-04T06:25:59.292Z,21.31
2017-10-04T06:28:25.603Z,20.83
2017-10-04T06:30:51.849Z,20.48
2017-10-04T06:33:18.145Z,20.95
2017-10-04T06:35:44.376Z,20.84
2017-10-04T06:38:10.660Z,21.00
2017-10-04T06:40:36.940Z,20.69
2017-10-04T06:43:03.204Z,21.33
2017-10-04T06:45:29.494Z,20.59
2017-10-04T06:47:55.865Z,20.71
2017-10-04T06:50:22.156Z,20.95
2017-10-04T06:52:48.456Z,21.38
2017-10-04T06:55:14.818Z,22.37
2017-10-04T06:57:42.013Z,23.19
2017-10-04T07:00:08.308Z,23.03
2017-10-04T07:02:35.408Z,23.84
2017-10-04T07:05:01.710Z,23.80
2017-10-04T07:07:27.995Z,23.71
2017-10-04T07:09:54.278Z,23.79
2017-10-04T07:12:21.186Z,23.81
2017-10-04T07:14:48.369Z,23.29
2017-10-04T07:17:14.659Z,22.95
2017-10-04T07:19:40.987Z,21.97
2017-10-04T07:22:11.136Z,21.92
2017-10-04T07:24:37.759Z,22.07
2017-10-04T07:27:04.284Z,21.58
2017-10-04T07:29:31.350Z,20.41
2017-10-04T07:31:58.634Z,20.11
2017-10-04T07:34:24.939Z,20.97
2017-10-04T07:36:51.675Z,22.35
2017-10-04T07:39:18.944Z,22.08
2017-10-04T07:41:45.279Z,22.09
2017-10-04T07:44:11.574Z,22.79
2017-10-04T07:46:37.896Z,24.12
2017-10-04T07:49:04.145Z,24.04
2017-10-04T07:51:30.508Z,24.19
2017-10-04T07:53:57.036Z,23.84
2017-10-04T07:56:23.318Z,24.08
2017-10-04T07:58:49.667Z,23.87
2017-10-04T08:01:16.595Z,24.33
2017-10-04T08:03:42.998Z,24.13
2017-10-04T08:06:09.255Z,24.28
2017-10-04T08:08:35.556Z,24.74
2017-10-04T08:11:01.857Z,24.86
2017-10-04T08:13:28.133Z,24.57
2017-10-04T08:15:54.502Z,24.07
2017-10-04T08:18:20.789Z,24.64
2017-10-04T08:20:47.084Z,25.96
2017-10-04T08:23:13.428Z,26.23
2017-10-04T08:25:39.782Z,26.49
2017-10-04T08:28:06.069Z,27.23
2017-10-04T08:30:32.349Z,28.05
2017-10-04T08:32:58.675Z,27.93
2017-10-04T08:35:25.394Z,27.43
2017-10-04T08:37:51.675Z,27.25
2017-10-04T08:40:18.031Z,27.48
2017-10-04T08:42:44.946Z,26.38
2017-10-04T08:45:11.232Z,25.49
2017-10-04T08:47:37.585Z,25.57
2017-10-04T08:50:03.878Z,25.24
2017-10-04T08:52:30.186Z,25.52
2017-10-04T08:54:56.543Z,25.38
2017-10-04T08:57:24.819Z,25.47
2017-10-04T08:59:51.122Z,25.65
2017-10-04T09:02:17.453Z,25.17
2017-10-04T09:04:44.189Z,25.40
2017-10-04T09:07:10.551Z,25.53
2017-10-04T09:09:36.847Z,25.61
2017-10-04T09:12:03.304Z,26.04
2017-10-04T09:14:29.688Z,26.19
2017-10-04T09:16:55.989Z,25.79
2017-10-04T09:19:23.209Z,25.53
2017-10-04T09:21:49.732Z,25.81
2017-10-04T09:24:17.795Z,25.81
2017-10-04T09:26:44.188Z,25.41
2017-10-04T09:29:10.829Z,25.32
2017-10-04T09:31:37.168Z,25.68
2017-10-04T09:34:03.595Z,26.00
2017-10-04T09:36:29.986Z,26.04
2017-10-04T09:38:56.358Z,26.60
2017-10-04T09:41:23.229Z,25.78
2017-10-04T09:43:49.653Z,25.44
2017-10-04T09:46:17.303Z,25.54
2017-10-04T09:48:43.716Z,25.32
2017-10-04T09:51:10.032Z,24.98
2017-10-04T09:56:06.669Z,25.96
2017-10-04T09:58:32.979Z,25.96
2017-10-04T10:00:59.306Z,26.24
2017-10-04T10:03:25.692Z,25.96
2017-10-04T10:05:52.481Z,25.93
2017-10-04T10:08:18.856Z,26.17
2017-10-04T10:10:46.371Z,25.81
2017-10-04T10:13:11.606Z,25.48
2017-10-04T10:15:37.959Z,25.23
2017-10-04T10:18:04.389Z,25.95
2017-10-04T10:20:30.745Z,26.07
2017-10-04T10:22:57.156Z,26.34
2017-10-04T10:25:23.880Z,26.37
2017-10-04T10:30:21.930Z,26.97
2017-10-04T10:32:51.794Z,25.87
2017-10-04T10:35:18.227Z,25.68
2017-10-04T10:37:44.661Z,25.37
2017-10-04T10:40:11.039Z,25.91
2017-10-04T10:42:37.813Z,25.71
2017-10-04T10:45:07.365Z,25.50
2017-10-04T10:47:34.658Z,25.15
2017-10-04T10:50:01.038Z,24.33
2017-10-04T10:52:27.468Z,24.28
2017-10-04T10:54:53.842Z,24.72
2017-10-04T10:57:20.262Z,25.17
2017-10-04T10:59:46.582Z,24.38
2017-10-04T11:02:12.942Z,24.04
2017-10-04T11:04:39.317Z,24.04
2017-10-04T11:07:05.946Z,23.98
2017-10-04T11:09:33.567Z,24.33
2017-10-04T11:12:01.727Z,24.45
2017-10-04T11:14:30.993Z,24.86
2017-10-04T11:17:00.741Z,25.15
2017-10-04T11:19:27.188Z,24.72
2017-10-04T11:22:05.313Z,24.39
2017-10-04T11:24:32.478Z,24.53
2017-10-04T11:27:00.552Z,25.45
2017-10-04T11:29:26.968Z,25.21
2017-10-04T11:31:53.439Z,24.97
2017-10-04T11:34:20.678Z,24.99
2017-10-04T11:39:32.279Z,25.52
2017-10-04T11:41:59.886Z,25.49
2017-10-04T11:44:29.715Z,24.84
2017-10-04T11:46:56.095Z,24.07
2017-10-04T11:49:23.041Z,23.41
2017-10-04T11:51:56.816Z,23.55
2017-10-04T11:54:23.227Z,23.25
2017-10-04T11:56:57.383Z,23.06
2017-10-04T11:59:24.426Z,23.11
2017-10-04T12:01:50.823Z,23.04
2017-10-04T12:04:21.053Z,23.01
2017-10-04T12:06:49.272Z,22.49
2017-10-04T12:11:45.980Z,21.87
2017-10-04T12:14:12.334Z,21.40
2017-10-04T12:16:40.428Z,21.39
2017-10-04T12:19:06.725Z,20.91
2017-10-04T12:24:03.655Z,20.91
2017-10-04T12:26:30.073Z,20.80
2017-10-04T12:28:56.474Z,20.92
2017-10-04T12:31:23.094Z,21.09
2017-10-04T12:33:49.543Z,21.25
2017-10-04T12:36:16.018Z,21.32
2017-10-04T12:38:42.458Z,21.43
2017-10-04T12:41:09.474Z,21.60
2017-10-04T12:43:35.860Z,21.81
2017-10-04T12:46:02.258Z,21.56
2017-10-04T12:48:28.670Z,21.66
2017-10-04T12:50:55.030Z,21.43
2017-10-04T12:53:21.407Z,21.43
2017-10-04T12:55:47.753Z,21.61
2017-10-04T12:58:14.513Z,21.70
2017-10-04T13:00:48.420Z,21.69
2017-10-04T13:03:15.805Z,21.51
2017-10-04T13:05:42.246Z,21.22
2017-10-04T13:08:09.445Z,20.90
2017-10-04T13:10:35.904Z,20.98
2017-10-04T13:13:02.283Z,20.83
2017-10-04T13:15:28.665Z,20.76
2017-10-04T13:17:55.356Z,20.67
2017-10-04T13:22:52.038Z,20.57
2017-10-04T13:25:19.108Z,20.67
2017-10-04T13:27:45.473Z,20.61
2017-10-04T13:30:13.032Z,20.44
2017-10-04T13:32:42.906Z,20.47
2017-10-04T13:35:10.542Z,20.68
2017-10-04T13:37:36.931Z,20.76
2017-10-04T13:40:04.347Z,20.81
2017-10-04T13:42:30.746Z,20.99
2017-10-04T13:44:57.173Z,21.05
2017-10-04T13:49:54.950Z,20.73
2017-10-04T13:52:22.292Z,20.78
2017-10-04T13:54:48.674Z,20.84
2017-10-04T13:57:15.064Z,20.96
2017-10-04T13:59:41.455Z,20.98
2017-10-04T14:02:09.960Z,20.93
2017-10-04T14:04:43.389Z,20.91
2017-10-04T14:07:09.789Z,20.85
2017-10-04T14:09:36.508Z,20.76
2017-10-04T14:12:03.139Z,20.69
2017-10-04T14:14:29.529Z,20.71
2017-10-04T14:16:56.369Z,20.82
2017-10-04T14:19:22.725Z,20.96
2017-10-04T14:21:50.863Z,21.29
2017-10-04T14:24:17.222Z,21.89
2017-10-04T14:26:43.559Z,23.33
2017-10-04T14:29:09.909Z,23.73
2017-10-04T14:31:38.191Z,24.73
2017-10-04T14:34:04.468Z,24.26
2017-10-04T14:36:30.774Z,23.03
2017-10-04T14:38:57.231Z,22.44
2017-10-04T14:44:01.959Z,21.81
2017-10-04T14:46:28.312Z,22.41
2017-10-04T14:51:42.637Z,23.07
2017-10-04T14:54:09.492Z,23.20
2017-10-04T14:56:35.958Z,23.80
2017-10-04T14:59:03.300Z,23.89
2017-10-04T15:01:30.907Z,23.32
2017-10-04T15:03:57.256Z,23.34
2017-10-04T15:08:55.950Z,22.78
2017-10-04T15:11:22.303Z,22.21
2017-10-04T15:13:48.625Z,21.38
2017-10-04T15:16:15.903Z,21.10
2017-10-04T15:18:42.668Z,20.58
2017-10-04T15:21:09.304Z,20.35
2017-10-04T15:23:35.672Z,20.00
2017-10-04T15:26:02.062Z,19.77
2017-10-04T15:28:28.442Z,19.60
2017-10-04T15:30:54.879Z,19.41
2017-10-04T15:33:21.448Z,19.28
2017-10-04T15:35:48.898Z,19.16
2017-10-04T15:40:48.988Z,18.69
2017-10-04T15:43:15.300Z,18.46
2017-10-04T15:45:41.629Z,18.33
2017-10-04T15:48:07.966Z,18.14
2017-10-04T15:50:35.520Z,17.87
2017-10-04T15:53:01.967Z,17.77
2017-10-04T15:55:28.353Z,17.67
2017-10-04T15:57:55.949Z,17.57
2017-10-04T16:00:22.300Z,17.43
2017-10-04T16:02:49.183Z,17.29
2017-10-04T16:05:28.364Z,17.19
2017-10-04T16:08:01.251Z,17.01
2017-10-04T16:10:27.585Z,16.88
2017-10-04T16:12:54.819Z,16.74
2017-10-04T16:15:21.555Z,16.49
2017-10-04T16:17:50.428Z,16.39
2017-10-04T16:20:17.925Z,16.33
2017-10-04T16:22:44.381Z,16.27
2017-10-04T16:25:10.670Z,16.14
2017-10-04T16:27:37.174Z,16.05
2017-10-04T16:32:35.423Z,15.89
2017-10-04T16:37:41.037Z,15.63
2017-10-04T16:42:57.266Z,15.46
2017-10-04T16:45:27.551Z,15.38
2017-10-04T16:47:54.633Z,15.24
2017-10-04T16:50:24.982Z,15.05
2017-10-04T16:52:51.427Z,15.09
2017-10-04T16:55:17.724Z,15.18
2017-10-04T16:57:44.098Z,15.07
2017-10-04T17:00:18.358Z,15.05
2017-10-04T17:15:06.935Z,14.25
2017-10-04T17:17:33.263Z,14.23
2017-10-04T17:19:59.566Z,14.25
2017-10-04T17:22:27.898Z,14.22
2017-10-04T17:24:56.543Z,14.15
2017-10-04T17:27:22.869Z,14.16
2017-10-04T17:29:49.238Z,14.05
2017-10-04T17:32:15.544Z,13.98
2017-10-04T17:34:42.846Z,13.92
2017-10-04T17:37:10.010Z,13.94
2017-10-04T17:39:36.355Z,14.04
2017-10-04T17:42:02.687Z,14.11
2017-10-04T17:44:29.147Z,14.19
2017-10-04T17:46:55.635Z,14.28
2017-10-04T17:52:01.022Z,14.30
2017-10-04T17:54:29.753Z,14.26
2017-10-04T17:59:26.409Z,14.20
2017-10-04T18:01:52.979Z,14.06
2017-10-04T18:04:22.554Z,14.04
2017-10-04T18:06:48.882Z,13.91
2017-10-04T18:09:15.227Z,13.84
2017-10-04T18:11:41.651Z,13.75
2017-10-04T18:14:11.185Z,13.62
2017-10-04T18:16:37.488Z,13.55
2017-10-04T18:19:07.948Z,13.52
2017-10-04T18:21:34.402Z,13.46
2017-10-04T18:24:01.676Z,13.33
2017-10-04T18:26:28.037Z,13.28
2017-10-04T18:28:54.580Z,13.16
2017-10-04T18:31:20.992Z,13.15
2017-10-04T18:33:47.267Z,13.18
2017-10-04T18:36:14.604Z,13.10
2017-10-04T18:38:40.944Z,12.92
2017-10-04T18:41:07.475Z,12.84
2017-10-04T18:43:33.839Z,12.82
2017-10-04T18:46:00.210Z,12.76
2017-10-04T18:48:26.602Z,12.75
2017-10-04T18:50:53.395Z,12.63
2017-10-04T18:53:19.767Z,12.59
2017-10-04T18:55:46.181Z,12.61
2017-10-04T18:58:12.930Z,12.60
2017-10-04T19:00:43.243Z,12.56
2017-10-04T19:03:09.658Z,12.48
2017-10-04T19:05:35.989Z,12.33
2017-10-04T19:08:02.390Z,12.27
2017-10-04T19:10:28.674Z,12.25
2017-10-04T19:12:55.014Z,12.26
2017-10-04T19:15:21.430Z,12.24
2017-10-04T19:17:47.803Z,12.11
2017-10-04T19:20:14.656Z,12.12
2017-10-04T19:22:40.983Z,12.11
2017-10-04T19:25:07.338Z,12.12
2017-10-04T19:27:34.260Z,12.12
2017-10-04T19:30:00.564Z,12.02
2017-10-04T19:32:26.905Z,11.98
2017-10-04T19:34:53.217Z,11.96
2017-10-04T19:37:19.520Z,11.88
2017-10-04T19:39:45.849Z,11.82
2017-10-04T19:42:13.004Z,11.79
2017-10-04T19:44:39.299Z,11.76
2017-10-04T19:47:05.586Z,11.73
2017-10-04T19:49:31.877Z,11.68
2017-10-04T19:51:58.189Z,11.64
2017-10-04T19:54:24.539Z,11.67
2017-10-04T19:56:50.896Z,11.68
2017-10-04T19:59:17.256Z,11.64
2017-10-04T20:01:43.533Z,11.57
2017-10-04T20:04:09.868Z,11.52
2017-10-04T20:06:36.158Z,11.47
2017-10-04T20:09:02.408Z,11.35
2017-10-04T20:11:28.693Z,11.30
2017-10-04T20:13:54.976Z,11.20
2017-10-04T20:16:21.268Z,11.27
2017-10-04T20:18:47.576Z,11.29
2017-10-04T20:21:13.935Z,11.24
2017-10-04T20:23:40.257Z,11.19
2017-10-04T20:26:06.508Z,11.10
2017-10-04T20:28:32.846Z,11.00
2017-10-04T20:30:59.153Z,10.91
2017-10-04T20:33:25.380Z,10.98
2017-10-04T20:35:51.660Z,10.90
2017-10-04T20:38:17.889Z,10.74
2017-10-04T20:40:44.680Z,10.69
2017-10-04T20:43:11.121Z,10.77
2017-10-04T20:45:37.490Z,10.79
2017-10-04T20:48:04.230Z,10.76
2017-10-04T20:50:30.599Z,10.70
2017-10-04T20:52:56.959Z,10.74
2017-10-04T20:55:23.253Z,10.65
2017-10-04T20:57:51.239Z,10.54
2017-10-04T21:00:17.558Z,10.47
2017-10-04T21:02:43.842Z,10.40
2017-10-04T21:05:10.200Z,10.36
2017-10-04T21:07:36.556Z,10.40
2017-10-04T21:10:02.856Z,10.41
2017-10-04T21:12:29.342Z,10.45
2017-10-04T21:14:55.690Z,10.53
2017-10-04T21:17:23.213Z,10.62
2017-10-04T21:19:49.811Z,10.57
2017-10-04T21:22:16.127Z,10.56
2017-10-04T21:24:46.307Z,10.51
2017-10-04T21:27:12.727Z,10.37
2017-10-04T21:29:39.092Z,10.34
2017-10-04T21:32:05.604Z,10.37
2017-10-04T21:34:32.023Z,10.38
2017-10-04T21:37:00.290Z,10.36
2017-10-04T21:39:26.651Z,10.29
2017-10-04T21:41:53.039Z,10.21
2017-10-04T21:44:19.430Z,10.18
2017-10-04T21:46:45.821Z,10.18
2017-10-04T21:49:12.390Z,10.07
2017-10-04T21:51:38.828Z,10.10
2017-10-04T21:54:05.263Z,10.00
2017-10-04T21:56:33.605Z,10.09
2017-10-04T21:59:01.409Z,10.03
2017-10-04T22:01:28.555Z,9.99
2017-10-04T22:03:55.023Z,9.95
2017-10-04T22:06:34.978Z,9.92
2017-10-04T22:09:04.968Z,9.92
2017-10-04T22:11:31.392Z,9.91
2017-10-04T22:13:57.642Z,9.95
2017-10-04T22:16:24.057Z,9.88
2017-10-04T22:18:50.399Z,9.80
2017-10-04T22:21:16.794Z,9.81
2017-10-04T22:23:43.234Z,9.78
2017-10-04T22:26:09.564Z,9.76
2017-10-04T22:28:36.057Z,9.75
2017-10-04T22:31:02.523Z,9.65
2017-10-04T22:33:28.865Z,9.54
2017-10-04T22:35:55.154Z,9.53
2017-10-04T22:38:21.953Z,9.48
2017-10-04T22:40:52.068Z,9.54
2017-10-04T22:43:21.464Z,9.49
2017-10-04T22:45:56.277Z,9.47
2017-10-04T22:48:22.591Z,9.45
2017-10-04T22:50:50.067Z,9.50
2017-10-04T22:53:16.483Z,9.48
2017-10-04T22:55:42.890Z,9.49
2017-10-04T22:58:09.235Z,9.50
2017-10-04T23:00:35.616Z,9.51
2017-10-04T23:03:02.167Z,9.39
2017-10-04T23:05:28.478Z,9.39
2017-10-04T23:07:54.835Z,9.34
2017-10-04T23:10:21.120Z,9.27
2017-10-04T23:12:49.306Z,9.18
2017-10-04T23:15:15.727Z,9.26
2017-10-04T23:17:42.111Z,9.26
2017-10-04T23:20:08.517Z,9.23
2017-10-04T23:22:34.964Z,9.22
2017-10-04T23:25:01.415Z,9.31
2017-10-04T23:27:27.728Z,9.55
2017-10-04T23:29:54.016Z,9.66
2017-10-04T23:32:20.384Z,9.67
2017-10-04T23:34:50.725Z,9.66
2017-10-04T23:37:17.134Z,9.65
2017-10-04T23:39:43.392Z,9.54
2017-10-04T23:42:09.739Z,9.53
2017-10-04T23:44:36.056Z,9.54
2017-10-04T23:47:02.380Z,9.49
2017-10-04T23:49:28.787Z,9.39
2017-10-04T23:51:55.146Z,9.39
2017-10-04T23:54:21.482Z,9.33
2017-10-04T23:56:47.817Z,9.32
2017-10-04T23:59:14.205Z,9.36
